Time;durP1;ratioP1;P1;durP2;ratioP2;P2;SDS_P1;SDS_P2;PMS_P1;PMS_P2;Temp;Humidity;BMP_temperature;BMP_pressure;BME280_temperature;BME280_humidity;BME280_pressure;Samples;Min_cycle;Max_cycle;Signal;HPM_P1;HPM_P2
2021/09/16 00:02:21;;;;;;;1999.90;999.90;;;;;;;16.09;57.68;100653.19;4978005;28;98624;-75
2021/09/16 00:04:49;;;;;;;1999.90;999.90;;;;;;;16.11;57.31;100655.88;4978758;28;98019;-76
2021/09/16 00:07:17;;;;;;;1999.90;999.90;;;;;;;16.12;56.97;100662.16;4986188;28;96880;-75
2021/09/16 00:09:44;;;;;;;1999.90;999.90;;;;;;;16.06;56.76;100655.91;4980126;28;96901;-74
2021/09/16 00:12:12;;;;;;;1999.90;999.90;;;;;;;16.01;56.57;100668.41;4961624;28;99217;-76
2021/09/16 00:14:41;;;;;;;1999.90;999.90;;;;;;;15.94;56.47;100663.06;4979961;28;99626;-74
2021/09/16 00:17:09;;;;;;;1999.90;999.90;;;;;;;15.88;56.29;100663.06;4979498;28;97174;-74
2021/09/16 00:19:38;;;;;;;1999.90;999.90;;;;;;;15.81;56.54;100662.19;4976493;28;97390;-75
2021/09/16 00:22:06;;;;;;;1999.90;999.90;;;;;;;15.75;56.30;100659.53;4974090;28;100901;-75
2021/09/16 00:24:34;;;;;;;1999.90;999.90;;;;;;;15.71;56.74;100671.16;4991522;28;98710;-74
2021/09/16 00:27:02;;;;;;;1999.90;999.90;;;;;;;15.65;56.90;100668.47;4979807;28;97098;-74
2021/09/16 00:29:31;;;;;;;1999.90;999.90;;;;;;;15.56;56.79;100663.13;4979179;28;97023;-74
2021/09/16 00:32:00;;;;;;;1999.90;999.90;;;;;;;15.53;57.28;100662.22;4980004;28;99785;-75
2021/09/16 00:34:28;;;;;;;1999.90;999.90;;;;;;;15.52;56.92;100679.25;4956712;28;100669;-74
2021/09/16 00:36:56;;;;;;;1999.90;999.90;;;;;;;15.51;57.22;100672.97;4980467;28;97386;-76
2021/09/16 00:39:24;;;;;;;1999.90;999.90;;;;;;;15.52;57.18;100681.91;4961205;28;97110;-75
2021/09/16 00:41:52;;;;;;;1999.90;999.90;;;;;;;15.50;56.99;100676.53;4970128;28;100880;-75
2021/09/16 00:44:20;;;;;;;1999.90;999.90;;;;;;;15.51;57.07;100675.66;4977558;28;99631;-76
2021/09/16 00:46:48;;;;;;;1999.90;999.90;;;;;;;15.53;57.26;100678.31;4979549;28;97137;-76
2021/09/16 00:49:17;;;;;;;1999.90;999.90;;;;;;;15.53;57.25;100681.00;4963189;28;96739;-75
2021/09/16 00:51:47;;;;;;;1999.90;999.90;;;;;;;15.55;57.07;100689.94;4980582;28;98628;-75
2021/09/16 00:54:17;;;;;;;1999.90;999.90;;;;;;;15.53;57.03;100691.75;4978627;28;99816;-76
2021/09/16 00:56:48;;;;;;;1999.90;999.90;;;;;;;15.50;56.95;100697.13;4959242;28;97219;-76
2021/09/16 00:59:18;;;;;;;1999.90;999.90;;;;;;;15.49;57.32;100695.31;4962028;28;96831;-75
2021/09/16 01:01:46;;;;;;;1999.90;999.90;;;;;;;15.51;56.95;100694.44;4963669;28;99202;-77
2021/09/16 01:04:14;;;;;;;1999.90;999.90;;;;;;;15.47;56.77;100691.72;4961728;28;97788;-74
2021/09/16 01:06:43;;;;;;;1999.90;999.90;;;;;;;15.46;56.81;100692.63;4965168;28;97383;-75
2021/09/16 01:09:12;;;;;;;1999.90;999.90;;;;;;;15.43;56.71;100685.47;4993466;28;97539;-74
2021/09/16 01:11:40;;;;;;;1999.90;999.90;;;;;;;15.47;56.64;100689.03;4978609;28;98040;-76
2021/09/16 01:14:08;;;;;;;1999.90;999.90;;;;;;;15.43;56.27;100696.19;4980646;28;100181;-76
2021/09/16 01:16:36;;;;;;;1999.90;999.90;;;;;;;15.40;56.41;100690.84;4988819;28;99322;-75
2021/09/16 01:19:04;;;;;;;1999.90;999.90;;;;;;;15.39;56.10;100694.44;4979166;28;97559;-75
2021/09/16 01:21:32;;;;;;;1999.90;999.90;;;;;;;15.39;55.86;100698.91;4978050;28;97743;-76
2021/09/16 01:24:01;;;;;;;1999.90;999.90;;;;;;;15.38;56.18;100697.09;4971771;28;99166;-76
2021/09/16 01:26:29;;;;;;;1999.90;999.90;;;;;;;15.33;55.84;100701.56;4980511;28;96958;-74
2021/09/16 01:28:57;;;;;;;1999.90;999.90;;;;;;;15.30;55.87;100705.16;4970523;28;97181;-76
2021/09/16 01:31:46;;;;;;;1999.90;999.90;;;;;;;15.31;56.15;100704.25;4977872;28;98982;-76
2021/09/16 01:34:15;;;;;;;1999.90;999.90;;;;;;;15.32;55.53;100697.13;4977606;28;100594;-75
2021/09/16 01:36:45;;;;;;;1999.90;999.90;;;;;;;15.29;55.33;100708.72;4978843;28;97202;-75
2021/09/16 01:39:16;;;;;;;1999.90;999.90;;;;;;;15.26;55.62;100702.44;4961489;28;97354;-75
2021/09/16 01:41:44;;;;;;;1999.90;999.90;;;;;;;15.25;55.37;100709.56;4954514;28;97608;-76
2021/09/16 01:44:12;;;;;;;1999.90;999.90;;;;;;;15.21;55.40;100704.22;4979241;28;99280;-76
2021/09/16 01:46:39;;;;;;;1999.90;999.90;;;;;;;15.19;55.38;100709.59;4978126;28;97014;-76
2021/09/16 01:49:08;;;;;;;1999.90;999.90;;;;;;;15.17;55.18;100710.47;4980024;28;97312;-76
2021/09/16 01:51:36;;;;;;;1999.90;999.90;;;;;;;15.12;55.46;100719.38;4977843;28;97790;-74
2021/09/16 01:54:05;;;;;;;1999.90;999.90;;;;;;;15.14;55.11;100722.06;4968305;28;98825;-75
2021/09/16 01:56:35;;;;;;;1999.90;999.90;;;;;;;15.12;55.33;100723.84;4954522;28;96884;-76
2021/09/16 01:59:02;;;;;;;1999.90;999.90;;;;;;;15.12;55.46;100718.47;4976898;28;96904;-75
2021/09/16 02:01:30;;;;;;;1999.90;999.90;;;;;;;15.09;55.17;100718.50;4977429;28;98969;-75
2021/09/16 02:03:58;;;;;;;1999.90;999.90;;;;;;;15.02;54.78;100720.28;4979090;28;101885;-74
2021/09/16 02:06:26;;;;;;;1999.90;999.90;;;;;;;14.97;55.27;100726.53;4960258;28;96987;-75
2021/09/16 02:08:54;;;;;;;1999.90;999.90;;;;;;;14.91;55.04;100721.13;4954052;28;97156;-74
2021/09/16 02:11:22;;;;;;;1999.90;999.90;;;;;;;14.85;55.32;100721.09;4979640;28;100720;-76
2021/09/16 02:13:51;;;;;;;1999.90;999.90;;;;;;;14.84;55.20;100719.34;4977526;28;100339;-75
2021/09/16 02:16:19;;;;;;;1999.90;999.90;;;;;;;14.79;55.18;100713.94;4976854;28;97068;-75
2021/09/16 02:18:47;;;;;;;1999.90;999.90;;;;;;;14.73;55.14;100718.41;4955736;28;97001;-74
2021/09/16 02:21:15;;;;;;;1999.90;999.90;;;;;;;14.70;55.46;100724.63;4976291;28;98146;-74
2021/09/16 02:23:43;;;;;;;1999.90;999.90;;;;;;;14.77;55.42;100722.91;4980166;28;99302;-75
2021/09/16 02:26:11;;;;;;;1999.90;999.90;;;;;;;14.76;55.10;100719.31;4979937;28;96908;-75
2021/09/16 02:28:39;;;;;;;1999.90;999.90;;;;;;;14.74;55.18;100728.22;4974860;28;97212;-75
2021/09/16 02:31:08;;;;;;;1999.90;999.90;;;;;;;14.68;55.09;100733.56;4978870;28;98190;-74
2021/09/16 02:33:36;;;;;;;1999.90;999.90;;;;;;;14.66;55.25;100725.50;4979596;28;99199;-75
2021/09/16 02:36:04;;;;;;;1999.90;999.90;;;;;;;14.71;54.97;100722.88;4977911;28;97164;-76
2021/09/16 02:38:32;;;;;;;1999.90;999.90;;;;;;;14.75;54.54;100730.94;4956825;28;97039;-75
2021/09/16 02:41:00;;;;;;;1999.90;999.90;;;;;;;14.73;54.79;100731.81;4996708;28;97949;-76
2021/09/16 02:43:28;;;;;;;1999.90;999.90;;;;;;;14.74;54.61;100728.22;4980233;28;97616;-76
2021/09/16 02:45:56;;;;;;;1999.90;999.90;;;;;;;14.75;54.78;100730.94;4979169;28;96901;-74
2021/09/16 02:48:25;;;;;;;1999.90;999.90;;;;;;;14.77;54.43;100736.28;4982831;28;97215;-75
2021/09/16 02:50:53;;;;;;;1999.90;999.90;;;;;;;14.71;54.65;100744.28;4978495;28;98862;-75
2021/09/16 02:53:21;;;;;;;1999.90;999.90;;;;;;;14.65;54.73;100736.22;4954353;28;99708;-76
2021/09/16 02:55:49;;;;;;;1999.90;999.90;;;;;;;14.68;54.66;100738.94;4979674;28;97054;-75
2021/09/16 02:58:17;;;;;;;1999.90;999.90;;;;;;;14.72;54.81;100738.94;4963038;28;96938;-76
2021/09/16 03:00:44;;;;;;;1999.90;999.90;;;;;;;14.71;54.44;100737.16;4969541;28;97881;-76
2021/09/16 03:03:12;;;;;;;1999.90;999.90;;;;;;;14.67;54.39;100737.13;4980158;28;99025;-75
2021/09/16 03:05:42;;;;;;;1999.90;999.90;;;;;;;14.66;54.68;100746.06;4979689;28;97249;-75
2021/09/16 03:08:10;;;;;;;1999.90;999.90;;;;;;;14.64;54.70;100747.84;4980628;28;98098;-75
2021/09/16 03:10:38;;;;;;;1999.90;999.90;;;;;;;14.62;54.26;100749.63;4979714;28;99118;-75
2021/09/16 03:13:06;;;;;;;1999.90;999.90;;;;;;;14.65;54.40;100749.63;4972800;28;99522;-75
2021/09/16 03:15:34;;;;;;;1999.90;999.90;;;;;;;14.67;54.21;100746.06;4978345;28;97067;-74
2021/09/16 03:18:02;;;;;;;1999.90;999.90;;;;;;;14.67;54.33;100742.47;4977304;28;96815;-75
2021/09/16 03:20:30;;;;;;;1999.90;999.90;;;;;;;14.67;54.25;100750.53;4978478;28;99449;-76
2021/09/16 03:22:59;;;;;;;1999.90;999.90;;;;;;;14.70;53.99;100748.75;4994816;28;99607;-75
2021/09/16 03:25:27;;;;;;;1999.90;999.90;;;;;;;14.73;54.03;100751.47;4979356;28;97059;-75
2021/09/16 03:27:55;;;;;;;1999.90;999.90;;;;;;;14.73;53.78;100754.13;4976702;28;97067;-74
2021/09/16 03:30:23;;;;;;;1999.90;999.90;;;;;;;14.74;54.19;100755.00;4979155;28;99357;-76
2021/09/16 03:32:51;;;;;;;1999.90;999.90;;;;;;;14.75;54.04;100751.47;4978914;28;97578;-75
2021/09/16 03:35:19;;;;;;;1999.90;999.90;;;;;;;14.74;54.09;100747.88;4981003;28;97126;-75
2021/09/16 03:37:47;;;;;;;1999.90;999.90;;;;;;;14.72;53.95;100763.03;4996949;28;97076;-75
2021/09/16 03:40:16;;;;;;;1999.90;999.90;;;;;;;14.70;54.02;100766.63;4994929;28;99360;-75
2021/09/16 03:42:46;;;;;;;1999.90;999.90;;;;;;;14.70;53.53;100763.94;4922506;28;1170488;-75
2021/09/16 03:45:14;;;;;;;1999.90;999.90;;;;;;;14.67;53.95;100758.56;4974095;28;97030;-74
2021/09/16 03:47:42;;;;;;;1999.90;999.90;;;;;;;14.64;53.86;100764.81;4978755;28;97202;-75
2021/09/16 03:50:10;;;;;;;1999.90;999.90;;;;;;;14.60;53.88;100767.47;4977441;28;98375;-75
2021/09/16 03:52:39;;;;;;;1999.90;999.90;;;;;;;14.52;54.01;100771.84;4959503;28;98873;-75
2021/09/16 03:55:07;;;;;;;1999.90;999.90;;;;;;;14.43;53.74;100766.44;4963780;28;97404;-75
2021/09/16 03:57:37;;;;;;;1999.90;999.90;;;;;;;14.41;53.80;100776.28;4980456;28;97712;-74
2021/09/16 04:00:07;;;;;;;1999.90;999.90;;;;;;;14.37;54.10;100778.00;4978796;28;99405;-75
2021/09/16 04:02:35;;;;;;;1999.90;999.90;;;;;;;14.34;53.99;100779.78;4972676;28;99185;-75
2021/09/16 04:05:03;;;;;;;1999.90;999.90;;;;;;;14.37;53.95;100777.13;4978327;28;97139;-76
2021/09/16 04:07:31;;;;;;;1999.90;999.90;;;;;;;14.35;53.83;100768.19;4971623;28;97180;-75
2021/09/16 04:09:59;;;;;;;1999.90;999.90;;;;;;;14.35;53.78;100770.88;4979219;28;98189;-76
2021/09/16 04:12:27;;;;;;;1999.90;999.90;;;;;;;14.31;53.72;100771.72;4972849;28;98644;-76
2021/09/16 04:14:57;;;;;;;1999.90;999.90;;;;;;;14.30;53.67;100773.50;4983273;28;96881;-76
2021/09/16 04:17:25;;;;;;;1999.90;999.90;;;;;;;14.27;53.34;100770.81;4980040;28;97376;-76
2021/09/16 04:19:53;;;;;;;1999.90;999.90;;;;;;;14.27;53.50;100775.28;4980028;28;99376;-76
2021/09/16 04:22:21;;;;;;;1999.90;999.90;;;;;;;14.29;53.19;100777.09;4976038;28;101114;-76
2021/09/16 04:24:49;;;;;;;1999.90;999.90;;;;;;;14.30;53.16;100775.31;4983122;28;96948;-76
2021/09/16 04:27:16;;;;;;;1999.90;999.90;;;;;;;14.35;53.30;100776.22;4998577;28;97082;-77
2021/09/16 04:29:44;;;;;;;1999.90;999.90;;;;;;;14.38;52.92;100784.25;4981804;28;99532;-76
2021/09/16 04:32:14;;;;;;;1999.90;999.90;;;;;;;14.40;53.32;100785.16;4982232;28;99712;-77
2021/09/16 04:34:42;;;;;;;1999.90;999.90;;;;;;;14.36;53.28;100780.69;4981237;28;97083;-77
2021/09/16 04:37:10;;;;;;;1999.90;999.90;;;;;;;14.36;53.19;100786.03;4966602;28;97085;-77
2021/09/16 04:39:38;;;;;;;1999.90;999.90;;;;;;;14.33;53.21;100783.34;4984569;28;99239;-75
2021/09/16 04:42:06;;;;;;;1999.90;999.90;;;;;;;14.27;53.22;100788.66;4966343;28;97907;-76
2021/09/16 04:44:34;;;;;;;1999.90;999.90;;;;;;;14.27;53.70;100791.34;4978428;28;97116;-77
2021/09/16 04:47:03;;;;;;;1999.90;999.90;;;;;;;14.28;53.26;100798.50;4982043;28;97030;-77
2021/09/16 04:49:32;;;;;;;1999.90;999.90;;;;;;;14.23;53.29;100794.88;4959491;28;99239;-77
2021/09/16 04:52:00;;;;;;;1999.90;999.90;;;;;;;14.20;53.55;100792.19;4970661;28;99480;-78
2021/09/16 04:54:28;;;;;;;1999.90;999.90;;;;;;;14.19;53.29;100801.13;4984807;28;97134;-78
2021/09/16 04:56:56;;;;;;;1999.90;999.90;;;;;;;14.14;53.66;100793.94;4986501;28;97131;-77
2021/09/16 04:59:24;;;;;;;1999.90;999.90;;;;;;;14.10;53.50;100796.56;4981292;28;99185;-77
2021/09/16 05:01:52;;;;;;;1999.90;999.90;;;;;;;14.08;53.72;100788.53;4980813;28;99188;-76
2021/09/16 05:04:20;;;;;;;1999.90;999.90;;;;;;;14.05;53.76;100801.00;4980389;28;97190;-78
2021/09/16 05:06:49;;;;;;;1999.90;999.90;;;;;;;14.05;53.74;100806.34;4978814;28;96836;-78
2021/09/16 05:09:17;;;;;;;1999.90;999.90;;;;;;;14.08;53.92;100799.25;4991729;28;99347;-77
2021/09/16 05:11:46;;;;;;;1999.90;999.90;;;;;;;14.14;53.80;100809.09;4981524;28;98778;-77
2021/09/16 05:14:14;;;;;;;1999.90;999.90;;;;;;;14.12;53.74;100806.41;4963826;28;97239;-76
2021/09/16 05:16:42;;;;;;;1999.90;999.90;;;;;;;14.09;53.75;100814.44;4963359;28;96947;-76
2021/09/16 05:19:10;;;;;;;1999.90;999.90;;;;;;;14.07;53.61;100813.53;4978361;28;98243;-76
2021/09/16 05:21:38;;;;;;;1999.90;999.90;;;;;;;14.10;53.86;100812.63;4979139;28;97580;-76
2021/09/16 05:24:07;;;;;;;1999.90;999.90;;;;;;;14.13;53.75;100816.22;4980784;28;97300;-76
2021/09/16 05:26:35;;;;;;;1999.90;999.90;;;;;;;14.17;53.89;100823.41;4959784;28;97039;-76
2021/09/16 05:29:03;;;;;;;1999.90;999.90;;;;;;;14.24;53.47;100818.09;4977125;28;98288;-76
2021/09/16 05:31:31;;;;;;;1999.90;999.90;;;;;;;14.29;53.43;100822.59;4979838;28;99123;-76
2021/09/16 05:33:59;;;;;;;1999.90;999.90;;;;;;;14.29;53.14;100830.63;4981492;28;96830;-76
2021/09/16 05:36:27;;;;;;;1999.90;999.90;;;;;;;14.23;53.33;100827.00;4966285;28;96913;-76
2021/09/16 05:38:55;;;;;;;1999.90;999.90;;;;;;;14.19;53.34;100825.19;4978465;28;100024;-76
2021/09/16 05:41:25;;;;;;;1999.90;999.90;;;;;;;14.18;53.40;100832.31;4981464;28;98104;-77
2021/09/16 05:43:53;;;;;;;1999.90;999.90;;;;;;;14.22;53.20;100836.81;4981364;28;96862;-77
2021/09/16 05:46:21;;;;;;;1999.90;999.90;;;;;;;14.25;52.81;100833.25;4955510;28;97078;-77
2021/09/16 05:48:49;;;;;;;1999.90;999.90;;;;;;;14.19;52.91;100839.47;4982723;28;97304;-77
2021/09/16 05:51:17;;;;;;;1999.90;999.90;;;;;;;14.13;53.28;100837.63;4963767;28;97833;-77
2021/09/16 05:53:44;;;;;;;1999.90;999.90;;;;;;;14.13;53.06;100832.28;4980541;28;97329;-77
2021/09/16 05:56:13;;;;;;;1999.90;999.90;;;;;;;14.13;53.28;100837.63;4980040;28;97183;-77
2021/09/16 05:58:42;;;;;;;1999.90;999.90;;;;;;;14.15;52.91;100837.66;4982045;28;96855;-76
2021/09/16 06:01:10;;;;;;;1999.90;999.90;;;;;;;14.14;52.97;100857.28;4980753;28;100736;-77
2021/09/16 06:03:38;;;;;;;1999.90;999.90;;;;;;;14.14;52.84;100849.25;4972411;28;97256;-76
2021/09/16 06:06:06;;;;;;;1999.90;999.90;;;;;;;14.17;52.65;100855.50;4971942;28;96952;-77
2021/09/16 06:08:34;;;;;;;1999.90;999.90;;;;;;;14.24;52.90;100855.56;4980177;28;97996;-77
2021/09/16 06:11:03;;;;;;;1999.90;999.90;;;;;;;14.27;52.61;100863.59;4977878;28;99474;-76
2021/09/16 06:13:31;;;;;;;1999.90;999.90;;;;;;;14.22;51.90;100860.91;4980067;28;97653;-77
2021/09/16 06:16:01;;;;;;;1999.90;999.90;;;;;;;14.14;51.65;100865.28;4983381;28;97160;-76
2021/09/16 06:18:29;;;;;;;1999.90;999.90;;;;;;;14.11;51.66;100871.53;4974564;28;98513;-77
2021/09/16 06:20:57;;;;;;;1999.90;999.90;;;;;;;14.15;51.18;100865.31;4979058;28;99238;-77
2021/09/16 06:23:25;;;;;;;1999.90;999.90;;;;;;;14.21;50.89;100866.25;4990857;28;96278;-77
2021/09/16 06:25:53;;;;;;;1999.90;999.90;;;;;;;14.22;50.33;100865.38;4982778;28;97205;-77
2021/09/16 06:28:21;;;;;;;1999.90;999.90;;;;;;;14.23;50.15;100861.78;4991967;28;99660;-77
2021/09/16 06:30:48;;;;;;;1999.90;999.90;;;;;;;14.26;49.85;100873.44;4980341;28;99867;-76
2021/09/16 06:33:18;;;;;;;1999.90;999.90;;;;;;;14.18;49.36;100877.81;4980197;28;96791;-77
2021/09/16 06:35:46;;;;;;;1999.90;999.90;;;;;;;14.11;49.26;100874.22;4956032;28;96887;-76
2021/09/16 06:38:14;;;;;;;1999.90;999.90;;;;;;;14.09;49.33;100877.75;4978914;28;97755;-77
2021/09/16 06:40:42;;;;;;;1999.90;999.90;;;;;;;14.07;49.55;100876.84;4963690;28;97674;-77
2021/09/16 06:43:10;;;;;;;1999.90;999.90;;;;;;;14.04;49.26;100880.38;4979543;28;96844;-76
2021/09/16 06:45:38;;;;;;;1999.90;999.90;;;;;;;14.05;49.38;100891.97;4980533;28;97107;-77
2021/09/16 06:48:06;;;;;;;1999.90;999.90;;;;;;;14.01;49.22;100890.16;4970941;28;98327;-77
2021/09/16 06:50:36;;;;;;;1999.90;999.90;;;;;;;14.02;49.14;100897.31;4973919;28;96926;-77
2021/09/16 06:53:04;;;;;;;1999.90;999.90;;;;;;;14.01;48.99;100888.38;4963490;28;96771;-77
2021/09/16 06:55:31;;;;;;;1999.90;999.90;;;;;;;13.99;48.46;100890.16;4964484;28;97321;-77
2021/09/16 06:57:59;;;;;;;1999.90;999.90;;;;;;;13.93;48.70;100894.56;4964438;28;100985;-77
2021/09/16 07:00:27;;;;;;;1999.90;999.90;;;;;;;13.86;48.53;100890.03;4977204;28;99697;-77
2021/09/16 07:02:55;;;;;;;1999.90;999.90;;;;;;;13.80;48.35;100893.56;4962264;28;96864;-77
2021/09/16 07:05:24;;;;;;;1999.90;999.90;;;;;;;13.76;48.50;100897.03;4978501;28;97165;-77
2021/09/16 07:07:53;;;;;;;1999.90;999.90;;;;;;;13.71;48.53;100898.78;4979565;28;97695;-77
2021/09/16 07:10:21;;;;;;;1999.90;999.90;;;;;;;13.67;48.42;100907.66;4982908;28;98003;-77
2021/09/16 07:12:51;;;;;;;1999.90;999.90;;;;;;;13.61;48.52;100899.53;4983375;28;97148;-77
2021/09/16 07:15:19;;;;;;;1999.90;999.90;;;;;;;13.57;48.42;100899.53;4966433;28;96936;-76
2021/09/16 07:17:47;;;;;;;1999.90;999.90;;;;;;;13.50;48.66;100893.19;4966332;28;98578;-77
2021/09/16 07:20:15;;;;;;;1999.90;999.90;;;;;;;13.52;48.88;100901.22;4980394;28;99638;-77
2021/09/16 07:22:44;;;;;;;1999.90;999.90;;;;;;;13.54;48.86;100900.38;4966097;28;97236;-75
2021/09/16 07:25:13;;;;;;;1999.90;999.90;;;;;;;13.53;49.10;100892.34;4967320;28;96983;-76
2021/09/16 07:27:41;;;;;;;1999.90;999.90;;;;;;;13.54;48.83;100899.47;4999337;28;100913;-77
2021/09/16 07:30:10;;;;;;;1999.90;999.90;;;;;;;13.53;48.85;100905.69;4963665;28;99329;-77
2021/09/16 07:32:38;;;;;;;1999.90;999.90;;;;;;;13.51;48.70;100908.38;4983561;28;96922;-76
2021/09/16 07:35:07;;;;;;;1999.90;999.90;;;;;;;13.48;48.84;100916.34;4983946;28;97573;-77
2021/09/16 07:37:35;;;;;;;1999.90;999.90;;;;;;;13.48;48.88;100910.97;4983107;28;99280;-77
2021/09/16 07:40:04;;;;;;;1999.90;999.90;;;;;;;13.50;48.96;100922.59;4983621;28;100544;-76
2021/09/16 07:42:34;;;;;;;1999.90;999.90;;;;;;;13.53;48.82;100911.94;4985395;28;96888;-75
2021/09/16 07:45:02;;;;;;;1999.90;999.90;;;;;;;13.56;48.98;100911.97;4974783;28;96655;-76
2021/09/16 07:47:30;;;;;;;1999.90;999.90;;;;;;;13.58;49.16;100909.31;4969785;28;97773;-77
2021/09/16 07:49:59;;;;;;;1999.90;999.90;;;;;;;13.63;49.01;100916.50;4987341;28;97584;-76
2021/09/16 07:52:27;;;;;;;1999.90;999.90;;;;;;;13.62;48.67;100912.03;4986018;28;97060;-77
2021/09/16 07:54:55;;;;;;;1999.90;999.90;;;;;;;13.64;48.71;100917.41;4993529;28;97186;-77
2021/09/16 07:57:23;;;;;;;1999.90;999.90;;;;;;;13.64;48.35;100912.94;4975387;28;99325;-76
2021/09/16 07:59:52;;;;;;;1999.90;999.90;;;;;;;13.66;47.84;100912.97;4961508;28;100794;-77
2021/09/16 08:02:20;;;;;;;1999.90;999.90;;;;;;;13.64;47.01;100922.75;4990730;28;97035;-77
2021/09/16 08:04:49;;;;;;;1999.90;999.90;;;;;;;13.65;46.83;100922.78;4964575;28;97304;-76
2021/09/16 08:07:17;;;;;;;1999.90;999.90;;;;;;;13.67;46.56;100923.69;4980082;28;97686;-77
2021/09/16 08:09:45;;;;;;;1999.90;999.90;;;;;;;13.68;46.75;100932.59;4996161;28;97680;-75
2021/09/16 08:12:13;;;;;;;1999.90;999.90;;;;;;;13.65;46.81;100928.13;4982320;28;96958;-76
2021/09/16 08:14:41;;;;;;;1999.90;999.90;;;;;;;13.65;47.01;100922.78;4998945;28;97173;-76
2021/09/16 08:17:10;;;;;;;1999.90;999.90;;;;;;;13.67;46.56;100925.47;4973019;28;98379;-77
2021/09/16 08:19:41;;;;;;;1999.90;999.90;;;;;;;13.65;46.38;100921.88;4980108;28;98516;-76
2021/09/16 08:22:09;;;;;;;1999.90;999.90;;;;;;;13.64;46.61;100934.34;4983054;28;97658;-77
2021/09/16 08:24:37;;;;;;;1999.90;999.90;;;;;;;13.63;45.82;100918.28;4983937;28;96955;-76
2021/09/16 08:27:05;;;;;;;1999.90;999.90;;;;;;;13.58;45.61;100917.34;4981027;28;97388;-75
2021/09/16 08:29:33;;;;;;;1999.90;999.90;;;;;;;13.59;45.68;100928.03;4981666;28;100369;-76
2021/09/16 08:32:02;;;;;;;1999.90;999.90;;;;;;;13.60;45.57;100910.22;4989197;28;98029;-76
2021/09/16 08:34:31;;;;;;;1999.90;999.90;;;;;;;13.60;45.67;100919.16;4989580;28;96987;-76
2021/09/16 08:36:59;;;;;;;1999.90;999.90;;;;;;;13.59;45.36;100920.03;4992091;28;99596;-76
2021/09/16 08:39:27;;;;;;;1999.90;999.90;;;;;;;13.62;44.88;100925.41;4992673;28;97820;-75
2021/09/16 08:41:55;;;;;;;1999.90;999.90;;;;;;;13.75;44.41;100916.63;4993862;28;96671;-76
2021/09/16 08:44:23;;;;;;;1999.90;999.90;;;;;;;13.83;43.91;100916.75;4974954;28;97159;-76
2021/09/16 08:46:51;;;;;;;1999.90;999.90;;;;;;;13.86;43.65;100915.00;4987628;28;99676;-76
2021/09/16 08:49:19;;;;;;;1999.90;999.90;;;;;;;13.87;43.53;100916.81;4989263;28;97598;-76
2021/09/16 08:51:49;;;;;;;1999.90;999.90;;;;;;;13.84;43.67;100922.09;4958930;28;97003;-76
2021/09/16 08:54:17;;;;;;;1999.90;999.90;;;;;;;13.81;43.30;100919.41;4969606;28;96920;-77
2021/09/16 08:56:47;;;;;;;1999.90;999.90;;;;;;;13.80;43.12;100925.66;4999701;28;100854;-76
2021/09/16 08:59:14;;;;;;;1999.90;999.90;;;;;;;13.81;43.14;100922.09;4983457;28;100607;-75
2021/09/16 09:01:45;;;;;;;1999.90;999.90;;;;;;;13.86;43.19;100928.38;4983769;28;97048;-76
2021/09/16 09:04:14;;;;;;;1999.90;999.90;;;;;;;13.87;43.30;100931.94;4983138;28;97400;-76
2021/09/16 09:06:43;;;;;;;1999.90;999.90;;;;;;;13.84;43.27;100929.25;4980970;28;100646;-75
2021/09/16 09:09:15;;;;;;;1999.90;999.90;;;;;;;13.82;43.20;100934.56;4964723;28;99307;-75
2021/09/16 09:11:55;;;;;;;1999.90;999.90;;;;;;;13.84;43.43;100927.44;4984037;28;96937;-77
2021/09/16 09:14:25;;;;;;;1999.90;999.90;;;;;;;13.88;43.72;100931.06;4983727;28;97386;-77
2021/09/16 09:16:53;;;;;;;1999.90;999.90;;;;;;;13.84;43.79;100927.44;4968475;28;98700;-75
2021/09/16 09:19:24;;;;;;;1999.90;999.90;;;;;;;13.84;43.74;100919.44;4979667;28;99002;-75
2021/09/16 09:21:53;;;;;;;1999.90;999.90;;;;;;;13.82;44.13;100921.19;4981719;28;96972;-76
2021/09/16 09:24:35;;;;;;;1999.90;999.90;;;;;;;13.83;44.02;100925.66;4981170;28;97186;-76
2021/09/16 09:27:20;;;;;;;1999.90;999.90;;;;;;;13.86;44.10;100925.69;4982752;28;98878;-76
2021/09/16 09:30:10;;;;;;;1999.90;999.90;;;;;;;13.92;44.21;100928.44;4961721;28;98209;-75
2021/09/16 09:32:53;;;;;;;1999.90;999.90;;;;;;;13.97;44.41;100921.34;4988252;28;96869;-75
2021/09/16 09:35:40;;;;;;;1999.90;999.90;;;;;;;14.05;44.45;100913.38;4975052;28;97171;-76
2021/09/16 09:38:16;;;;;;;1999.90;999.90;;;;;;;14.09;44.66;100910.78;4963235;28;97999;-75
2021/09/16 09:40:47;;;;;;;1999.90;999.90;;;;;;;14.14;44.54;100906.34;4980107;28;97629;-76
2021/09/16 09:43:21;;;;;;;1999.90;999.90;;;;;;;14.20;43.96;100905.50;4996642;28;97285;-77
2021/09/16 09:46:01;;;;;;;1999.90;999.90;;;;;;;14.19;43.93;100903.69;4981179;28;96858;-76
2021/09/16 09:48:29;;;;;;;1999.90;999.90;;;;;;;14.20;43.67;100907.28;4981012;28;98135;-75
2021/09/16 09:50:58;;;;;;;1999.90;999.90;;;;;;;14.21;43.71;100901.94;4995838;28;97605;-76
2021/09/16 09:53:26;;;;;;;1999.90;999.90;;;;;;;14.25;43.71;100909.09;4979909;28;96870;-77
2021/09/16 09:55:56;;;;;;;1999.90;999.90;;;;;;;14.28;43.92;100906.44;4995940;28;96869;-77
2021/09/16 09:58:32;;;;;;;1999.90;999.90;;;;;;;14.34;43.80;100917.22;4964354;28;99703;-75
2021/09/16 10:01:25;;;;;;;1999.90;999.90;;;;;;;14.38;43.63;100912.78;4980935;28;97652;-75
2021/09/16 10:03:53;;;;;;;1999.90;999.90;;;;;;;14.40;43.85;100938.69;4980769;28;97283;-74
2021/09/16 10:06:22;;;;;;;1999.90;999.90;;;;;;;14.40;43.82;100921.72;4964722;28;97231;-75
2021/09/16 10:09:09;;;;;;;1999.90;999.90;;;;;;;14.41;44.28;100921.72;4979602;28;99505;-76
2021/09/16 10:11:43;;;;;;;1999.90;999.90;;;;;;;14.40;44.09;100916.34;4956821;28;100746;-76
2021/09/16 10:14:11;;;;;;;1999.90;999.90;;;;;;;14.38;44.51;100931.50;4996461;28;97266;-76
2021/09/16 10:16:39;;;;;;;1999.90;999.90;;;;;;;14.35;44.35;100916.34;4979232;28;97245;-76
2021/09/16 10:19:07;;;;;;;1999.90;999.90;;;;;;;14.37;44.41;100916.34;4979610;28;98081;-76
2021/09/16 10:21:36;;;;;;;1999.90;999.90;;;;;;;14.40;44.50;100916.34;4955484;28;99566;-75
2021/09/16 10:24:06;;;;;;;1999.90;999.90;;;;;;;14.42;44.73;100919.94;4973950;28;97551;-76
2021/09/16 10:26:35;;;;;;;1999.90;999.90;;;;;;;14.45;44.43;100914.59;4979354;28;97704;-75
2021/09/16 10:29:06;;;;;;;1999.90;999.90;;;;;;;14.48;44.43;100928.03;4978946;28;97703;-75
2021/09/16 10:31:33;;;;;;;1999.90;999.90;;;;;;;14.47;44.37;100915.50;4979530;28;98957;-75
2021/09/16 10:34:42;;;;;;;1999.90;999.90;;;;;;;14.51;44.53;100910.22;4980643;28;97344;-77
2021/09/16 10:37:11;;;;;;;1999.90;999.90;;;;;;;14.53;43.97;100916.47;4979420;28;97830;-76
2021/09/16 10:39:40;;;;;;;1999.90;999.90;;;;;;;14.57;43.92;100928.13;4971821;28;98832;-76
2021/09/16 10:42:09;;;;;;;1999.90;999.90;;;;;;;14.58;44.16;100916.53;4974074;28;97892;-75
2021/09/16 10:44:38;;;;;;;1999.90;999.90;;;;;;;14.63;44.07;100915.66;4982707;28;96719;-76
2021/09/16 10:47:16;;;;;;;1999.90;999.90;;;;;;;14.66;43.94;100913.00;4984304;28;97516;-77
2021/09/16 10:49:44;;;;;;;1999.90;999.90;;;;;;;14.70;44.19;100914.81;4982581;28;98020;-77
2021/09/16 10:52:21;;;;;;;1999.90;999.90;;;;;;;14.77;44.09;100911.28;4993083;28;97840;-76
2021/09/16 10:54:51;;;;;;;1999.90;999.90;;;;;;;14.84;44.02;100907.78;4984847;28;96832;-76
2021/09/16 10:57:20;;;;;;;1999.90;999.90;;;;;;;14.91;43.96;100898.88;4981401;28;97262;-76